createdAt,value
2023-05-17T00:00:09.877Z,99.90
2023-05-17T00:02:36.955Z,99.90
2023-05-17T00:05:04.037Z,99.90
2023-05-17T00:07:33.658Z,99.90
2023-05-17T00:10:00.497Z,99.90
2023-05-17T00:12:27.294Z,99.90
2023-05-17T00:14:54.102Z,99.90
2023-05-17T00:17:23.313Z,99.90
2023-05-17T00:19:50.370Z,99.90
2023-05-17T00:22:19.971Z,99.90
2023-05-17T00:24:46.841Z,99.90
2023-05-17T00:27:13.771Z,99.90
2023-05-17T00:29:40.730Z,99.90
2023-05-17T00:32:07.713Z,99.90
2023-05-17T00:34:36.957Z,99.90
2023-05-17T00:37:06.260Z,99.90
2023-05-17T00:39:33.130Z,99.90
2023-05-17T00:42:01.012Z,99.90
2023-05-17T00:44:27.753Z,99.90
2023-05-17T00:46:54.701Z,99.90
2023-05-17T00:49:21.625Z,99.90
2023-05-17T00:51:48.665Z,99.90
2023-05-17T00:54:18.993Z,99.90
2023-05-17T00:56:46.059Z,99.90
2023-05-17T00:59:13.886Z,99.90
2023-05-17T01:01:42.203Z,99.90
2023-05-17T01:04:14.669Z,99.90
2023-05-17T01:06:41.788Z,99.90
2023-05-17T01:09:08.854Z,99.90
2023-05-17T01:11:40.661Z,99.90
2023-05-17T01:14:19.817Z,99.90
2023-05-17T01:16:53.956Z,99.90
2023-05-17T01:19:29.809Z,99.90
2023-05-17T01:22:10.770Z,99.90
2023-05-17T01:24:50.003Z,99.90
2023-05-17T01:27:20.124Z,99.90
2023-05-17T01:29:48.165Z,99.90
2023-05-17T01:32:16.383Z,99.90
2023-05-17T01:34:43.366Z,99.90
2023-05-17T01:37:10.449Z,99.90
2023-05-17T01:39:37.195Z,99.90
2023-05-17T01:42:07.428Z,99.90
2023-05-17T01:44:37.109Z,99.90
2023-05-17T01:47:13.095Z,99.90
2023-05-17T01:49:41.055Z,99.90
2023-05-17T01:52:17.423Z,99.90
2023-05-17T01:54:51.961Z,99.90
2023-05-17T01:57:20.196Z,99.90
2023-05-17T01:59:48.496Z,99.90
2023-05-17T02:02:15.524Z,99.90
2023-05-17T02:04:42.451Z,99.90
2023-05-17T02:07:09.270Z,99.90
2023-05-17T02:09:38.697Z,99.90
2023-05-17T02:12:05.892Z,99.90
2023-05-17T02:14:32.742Z,99.90
2023-05-17T02:19:28.532Z,99.90
2023-05-17T02:21:55.507Z,99.90
2023-05-17T02:24:22.360Z,99.90
2023-05-17T02:26:51.703Z,99.90
2023-05-17T02:29:18.530Z,99.90
2023-05-17T02:31:46.197Z,99.90
2023-05-17T02:34:13.089Z,99.90
2023-05-17T02:36:41.145Z,99.90
2023-05-17T02:39:07.921Z,99.90
2023-05-17T02:41:34.869Z,99.90
2023-05-17T02:44:01.787Z,99.90
2023-05-17T02:46:28.574Z,99.90
2023-05-17T02:48:58.325Z,99.90
2023-05-17T02:51:25.352Z,99.90
2023-05-17T02:53:52.242Z,99.90
2023-05-17T02:56:19.154Z,99.90
2023-05-17T02:58:46.113Z,99.90
2023-05-17T03:01:12.962Z,99.90
2023-05-17T03:03:40.113Z,99.90
2023-05-17T03:06:07.531Z,99.90
2023-05-17T03:08:34.407Z,99.90
2023-05-17T03:11:01.580Z,99.90
2023-05-17T03:13:28.403Z,99.90
2023-05-17T03:15:55.284Z,99.90
2023-05-17T03:18:25.299Z,99.90
2023-05-17T03:20:52.709Z,99.90
2023-05-17T03:23:19.522Z,99.90
2023-05-17T03:25:46.417Z,99.90
2023-05-17T03:28:13.210Z,99.90
2023-05-17T03:30:40.401Z,99.90
2023-05-17T03:33:07.321Z,99.90
2023-05-17T03:35:34.358Z,99.90
2023-05-17T03:38:01.184Z,99.90
2023-05-17T03:40:28.031Z,99.90
2023-05-17T03:42:54.896Z,99.90
2023-05-17T03:45:21.774Z,99.90
2023-05-17T03:47:51.172Z,99.90
2023-05-17T03:50:18.102Z,99.90
2023-05-17T03:52:46.132Z,99.90
2023-05-17T03:55:12.902Z,99.90
2023-05-17T03:57:39.739Z,99.90
2023-05-17T04:00:10.549Z,99.90
2023-05-17T04:02:37.508Z,99.90
2023-05-17T04:05:04.653Z,99.90
2023-05-17T04:07:31.577Z,99.90
2023-05-17T04:10:02.956Z,99.90
2023-05-17T04:12:29.923Z,99.90
2023-05-17T04:14:56.737Z,99.90
2023-05-17T04:17:27.272Z,99.90
2023-05-17T04:19:55.252Z,99.90
2023-05-17T04:22:25.142Z,99.90
2023-05-17T04:24:54.348Z,99.90
2023-05-17T04:27:22.014Z,99.90
2023-05-17T04:29:48.756Z,99.90
2023-05-17T04:32:18.625Z,99.90
2023-05-17T04:34:47.082Z,99.90
2023-05-17T04:37:13.953Z,99.90
2023-05-17T04:39:40.815Z,99.90
2023-05-17T04:42:09.824Z,99.90
2023-05-17T04:44:36.514Z,99.90
2023-05-17T04:47:03.884Z,99.90
2023-05-17T04:49:30.555Z,99.90
2023-05-17T04:51:57.166Z,99.90
2023-05-17T04:54:23.771Z,99.90
2023-05-17T04:56:50.429Z,99.90
2023-05-17T04:59:17.104Z,99.90
2023-05-17T05:01:43.757Z,99.90
2023-05-17T05:04:10.457Z,99.90
2023-05-17T05:06:37.138Z,99.90
2023-05-17T05:09:04.155Z,99.90
2023-05-17T05:11:31.900Z,99.90
2023-05-17T05:13:58.526Z,99.90
2023-05-17T05:16:25.127Z,99.90
2023-05-17T05:18:51.840Z,99.90
2023-05-17T05:21:18.555Z,99.90
2023-05-17T05:23:45.166Z,99.90
2023-05-17T05:26:11.763Z,99.90
2023-05-17T05:28:38.299Z,99.90
2023-05-17T05:31:04.948Z,99.90
2023-05-17T05:33:32.325Z,99.90
2023-05-17T05:35:59.050Z,99.90
2023-05-17T05:38:25.725Z,99.90
2023-05-17T05:40:52.362Z,99.90
2023-05-17T05:43:18.931Z,99.90
2023-05-17T05:45:48.309Z,99.90
2023-05-17T05:48:14.957Z,99.90
2023-05-17T05:50:42.910Z,99.90
2023-05-17T05:53:18.119Z,99.90
2023-05-17T05:55:46.714Z,99.90
2023-05-17T05:58:13.380Z,99.90
2023-05-17T06:00:39.952Z,99.90
2023-05-17T06:03:06.666Z,99.90
2023-05-17T06:05:33.554Z,99.90
2023-05-17T06:08:00.344Z,99.90
2023-05-17T06:10:27.324Z,99.90
2023-05-17T06:12:54.026Z,99.90
2023-05-17T06:15:20.637Z,99.90
2023-05-17T06:20:17.659Z,99.90
2023-05-17T06:22:44.293Z,99.90
2023-05-17T06:25:14.093Z,99.90
2023-05-17T06:27:40.897Z,99.90
2023-05-17T06:30:07.824Z,99.90
2023-05-17T06:32:34.935Z,99.90
2023-05-17T06:35:01.845Z,99.90
2023-05-17T06:37:28.634Z,99.90
2023-05-17T06:40:10.182Z,99.90
2023-05-17T06:42:41.928Z,99.90
2023-05-17T06:45:08.787Z,99.90
2023-05-17T06:47:35.474Z,99.90
2023-05-17T06:50:02.112Z,99.90
2023-05-17T06:52:28.706Z,99.90
2023-05-17T06:54:55.367Z,99.90
2023-05-17T06:57:22.615Z,99.90
2023-05-17T06:59:49.155Z,99.90
2023-05-17T07:02:16.010Z,99.90
2023-05-17T07:04:42.673Z,99.90
2023-05-17T07:07:09.271Z,99.90
2023-05-17T07:09:35.800Z,99.90
2023-05-17T07:12:05.365Z,99.90
2023-05-17T07:14:32.104Z,99.90
2023-05-17T07:16:59.054Z,99.90
2023-05-17T07:19:26.560Z,99.90
2023-05-17T07:21:56.394Z,99.90
2023-05-17T07:24:23.069Z,99.90
2023-05-17T07:26:51.600Z,99.90
2023-05-17T07:29:19.037Z,99.90
2023-05-17T07:31:45.714Z,99.90
2023-05-17T07:34:13.144Z,99.90
2023-05-17T07:36:39.901Z,99.90
2023-05-17T07:39:06.578Z,99.90
2023-05-17T07:41:34.171Z,99.90
2023-05-17T07:44:00.866Z,99.90
2023-05-17T07:46:27.668Z,99.90
2023-05-17T07:48:57.365Z,99.90
2023-05-17T07:51:25.048Z,99.90
2023-05-17T07:53:51.663Z,99.90
2023-05-17T07:56:18.561Z,99.90
2023-05-17T07:58:45.258Z,99.90
2023-05-17T08:01:11.854Z,99.90
2023-05-17T08:03:38.796Z,99.90
2023-05-17T08:06:05.604Z,99.90
2023-05-17T08:08:32.232Z,99.90
2023-05-17T08:10:58.794Z,99.90
2023-05-17T08:13:25.400Z,99.90
2023-05-17T08:15:58.422Z,99.90
2023-05-17T08:18:28.434Z,99.90
2023-05-17T08:20:55.145Z,99.90
2023-05-17T08:23:21.772Z,99.90
2023-05-17T08:25:48.339Z,99.90
2023-05-17T08:28:14.859Z,99.90
2023-05-17T08:30:41.726Z,99.90
2023-05-17T08:33:11.552Z,99.90
2023-05-17T08:35:40.608Z,99.90
2023-05-17T08:38:08.449Z,99.90
2023-05-17T08:40:35.126Z,99.90
2023-05-17T08:43:02.097Z,99.90
2023-05-17T08:45:29.285Z,99.90
2023-05-17T08:47:56.324Z,99.90
2023-05-17T08:50:23.804Z,99.90
2023-05-17T08:52:51.211Z,99.90
2023-05-17T08:55:18.263Z,99.90
2023-05-17T08:57:45.128Z,99.90
2023-05-17T09:00:15.222Z,99.90
2023-05-17T09:03:02.288Z,99.90
2023-05-17T09:05:29.082Z,99.90
2023-05-17T09:07:56.066Z,99.90
2023-05-17T09:10:22.902Z,99.90
2023-05-17T09:12:49.642Z,99.90
2023-05-17T09:15:17.383Z,99.00
2023-05-17T09:17:50.652Z,98.20
2023-05-17T09:20:24.122Z,97.80
2023-05-17T09:22:51.712Z,98.90
2023-05-17T09:25:21.387Z,99.90
2023-05-17T09:27:47.935Z,97.50
2023-05-17T09:30:14.568Z,96.00
2023-05-17T09:32:50.191Z,91.50
2023-05-17T09:35:17.283Z,91.40
2023-05-17T09:37:47.002Z,91.50
2023-05-17T09:40:26.535Z,90.20
2023-05-17T09:42:54.609Z,86.80
2023-05-17T09:45:24.722Z,83.50
2023-05-17T09:47:52.479Z,81.60
2023-05-17T09:50:19.878Z,78.20
2023-05-17T09:52:46.798Z,72.10
2023-05-17T09:55:13.459Z,75.10
2023-05-17T09:57:40.635Z,76.50
2023-05-17T10:00:11.688Z,76.80
2023-05-17T10:02:41.128Z,77.90
2023-05-17T10:05:10.517Z,77.50
2023-05-17T10:07:37.705Z,79.40
2023-05-17T10:10:05.123Z,80.60
2023-05-17T10:12:33.783Z,75.40
2023-05-17T10:15:01.076Z,76.40
2023-05-17T10:17:30.820Z,71.70
2023-05-17T10:19:57.893Z,71.30
2023-05-17T10:22:24.859Z,71.10
2023-05-17T10:24:51.821Z,75.50
2023-05-17T10:27:18.853Z,73.20
2023-05-17T10:29:47.672Z,66.90
2023-05-17T10:32:17.378Z,66.80
2023-05-17T10:34:45.756Z,66.10
2023-05-17T10:37:13.939Z,69.00
2023-05-17T10:39:48.141Z,74.20
2023-05-17T10:42:16.321Z,73.50
2023-05-17T10:44:46.000Z,74.90
2023-05-17T10:47:14.301Z,73.40
2023-05-17T10:49:41.899Z,74.00
2023-05-17T10:52:27.341Z,71.60
2023-05-17T10:54:55.948Z,68.20
2023-05-17T10:57:49.083Z,66.40
2023-05-17T11:00:20.422Z,64.30
2023-05-17T11:02:48.585Z,67.00
2023-05-17T11:05:23.019Z,73.30
2023-05-17T11:07:49.696Z,75.90
2023-05-17T11:10:17.847Z,72.60
2023-05-17T11:12:46.854Z,70.10
2023-05-17T11:15:15.032Z,66.90
2023-05-17T11:17:44.515Z,66.00
2023-05-17T11:20:26.785Z,68.60
2023-05-17T11:22:58.693Z,68.70
2023-05-17T11:25:30.289Z,66.40
2023-05-17T11:27:57.806Z,67.20
2023-05-17T11:30:26.820Z,67.10
2023-05-17T11:32:54.600Z,69.70
2023-05-17T11:35:23.673Z,68.70
2023-05-17T11:37:52.420Z,68.20
2023-05-17T11:40:27.448Z,67.90
2023-05-17T11:43:10.344Z,67.40
2023-05-17T11:45:57.670Z,65.90
2023-05-17T11:48:25.891Z,61.30
2023-05-17T11:50:53.820Z,63.60
2023-05-17T11:53:20.608Z,66.30
2023-05-17T11:55:48.801Z,66.70
2023-05-17T11:58:15.942Z,64.60
2023-05-17T12:00:43.206Z,62.50
2023-05-17T12:03:19.448Z,61.70
2023-05-17T12:05:47.251Z,62.70
2023-05-17T12:08:18.312Z,65.70
2023-05-17T12:10:52.112Z,61.20
2023-05-17T12:13:19.488Z,63.40
2023-05-17T12:15:51.487Z,65.20
2023-05-17T12:18:20.529Z,63.10
2023-05-17T12:20:59.861Z,61.10
2023-05-17T12:23:30.990Z,61.80
2023-05-17T12:26:04.832Z,65.00
2023-05-17T12:28:31.750Z,66.60
2023-05-17T12:31:02.618Z,64.10
2023-05-17T12:33:31.214Z,60.40
2023-05-17T12:35:58.388Z,63.70
2023-05-17T12:38:26.323Z,63.70
2023-05-17T12:40:53.179Z,61.60
2023-05-17T12:43:20.205Z,62.60
2023-05-17T12:45:47.607Z,60.10
2023-05-17T12:48:14.469Z,62.20
2023-05-17T12:50:45.085Z,64.80
2023-05-17T12:53:12.018Z,63.30
2023-05-17T12:55:38.864Z,60.80
2023-05-17T12:58:05.914Z,62.30
2023-05-17T13:00:34.084Z,60.20
2023-05-17T13:03:01.028Z,60.60
2023-05-17T13:05:30.898Z,61.10
2023-05-17T13:07:59.828Z,63.60
2023-05-17T13:10:33.050Z,59.10
2023-05-17T13:13:00.639Z,57.90
2023-05-17T13:15:31.220Z,57.50
2023-05-17T13:17:58.309Z,58.80
2023-05-17T13:20:25.081Z,58.50
2023-05-17T13:22:54.807Z,58.00
2023-05-17T13:25:21.790Z,61.40
2023-05-17T13:27:49.369Z,59.70
2023-05-17T13:30:16.482Z,60.90
2023-05-17T13:32:43.923Z,63.50
2023-05-17T13:35:11.255Z,60.00
2023-05-17T13:37:38.174Z,59.20
2023-05-17T13:40:05.216Z,58.70
2023-05-17T13:42:32.195Z,57.40
2023-05-17T13:45:01.516Z,55.80
2023-05-17T13:47:31.304Z,57.60
2023-05-17T13:50:01.808Z,59.10
2023-05-17T13:52:28.584Z,60.60
2023-05-17T13:54:55.588Z,60.50
2023-05-17T13:57:22.369Z,58.20
2023-05-17T13:59:49.192Z,55.90
2023-05-17T14:02:16.054Z,55.70
2023-05-17T14:04:42.833Z,56.10
2023-05-17T14:07:14.899Z,56.60
2023-05-17T14:09:41.885Z,57.30
2023-05-17T14:12:08.909Z,55.30
2023-05-17T14:14:35.910Z,55.00
2023-05-17T14:17:13.120Z,55.50
2023-05-17T14:19:43.066Z,54.00
2023-05-17T14:22:10.090Z,55.60
2023-05-17T14:24:39.844Z,54.20
2023-05-17T14:27:06.757Z,53.90
2023-05-17T14:29:33.512Z,53.90
2023-05-17T14:32:04.910Z,55.20
2023-05-17T14:34:31.746Z,53.00
2023-05-17T14:36:58.696Z,51.30
2023-05-17T14:39:25.546Z,50.90
2023-05-17T14:41:52.452Z,52.00
2023-05-17T14:44:19.243Z,54.30
2023-05-17T14:46:46.178Z,52.10
2023-05-17T14:49:13.797Z,50.20
2023-05-17T14:51:40.672Z,51.50
2023-05-17T14:54:07.618Z,52.10
2023-05-17T14:56:34.559Z,51.60
2023-05-17T14:59:02.004Z,52.30
2023-05-17T15:01:29.206Z,53.40
2023-05-17T15:03:56.385Z,52.50
2023-05-17T15:06:25.568Z,50.40
2023-05-17T15:08:54.994Z,50.90
2023-05-17T15:11:21.882Z,51.60
2023-05-17T15:13:48.790Z,51.00
2023-05-17T15:16:15.790Z,49.40
2023-05-17T15:18:42.973Z,50.00
2023-05-17T15:21:10.347Z,49.30
2023-05-17T15:23:37.733Z,50.20
2023-05-17T15:26:07.595Z,50.90
2023-05-17T15:28:34.534Z,49.60
2023-05-17T15:31:02.066Z,50.80
2023-05-17T15:33:28.988Z,50.20
2023-05-17T15:35:55.831Z,53.10
2023-05-17T15:38:22.870Z,52.70
2023-05-17T15:41:00.434Z,50.90
2023-05-17T15:43:27.336Z,49.30
2023-05-17T15:45:56.693Z,48.50
2023-05-17T15:48:29.335Z,50.60
2023-05-17T15:50:56.538Z,50.90
2023-05-17T15:53:23.677Z,52.60
2023-05-17T15:55:51.481Z,52.00
2023-05-17T15:58:18.871Z,51.50
2023-05-17T16:00:46.050Z,52.70
2023-05-17T16:03:14.637Z,52.10
2023-05-17T16:05:42.087Z,52.40
2023-05-17T16:08:09.374Z,50.50
2023-05-17T16:10:36.972Z,50.50
2023-05-17T16:13:04.353Z,53.90
2023-05-17T16:15:31.488Z,54.30
2023-05-17T16:17:58.600Z,55.30
2023-05-17T16:20:25.726Z,54.30
2023-05-17T16:22:53.864Z,52.90
2023-05-17T16:25:21.179Z,50.80
2023-05-17T16:27:48.644Z,49.50
2023-05-17T16:30:16.254Z,50.50
2023-05-17T16:32:43.438Z,50.80
2023-05-17T16:35:13.152Z,53.70
2023-05-17T16:37:40.925Z,54.30
2023-05-17T16:40:09.557Z,53.50
2023-05-17T16:42:36.493Z,53.30
2023-05-17T16:45:04.913Z,52.10
2023-05-17T16:47:33.573Z,53.10
2023-05-17T16:50:01.580Z,51.50
2023-05-17T16:52:30.170Z,53.10
2023-05-17T16:55:03.210Z,52.70
2023-05-17T16:57:33.092Z,52.30
2023-05-17T17:00:01.044Z,51.00
2023-05-17T17:02:30.601Z,51.00
2023-05-17T17:04:58.614Z,53.00
2023-05-17T17:07:25.482Z,53.20
2023-05-17T17:09:52.357Z,54.00
2023-05-17T17:12:24.801Z,53.70
2023-05-17T17:14:53.339Z,53.10
2023-05-17T17:17:20.083Z,54.10
2023-05-17T17:22:14.757Z,53.00
2023-05-17T17:24:41.851Z,53.40
2023-05-17T17:27:08.738Z,55.40
2023-05-17T17:29:35.645Z,55.10
2023-05-17T17:32:05.339Z,55.80
2023-05-17T17:34:32.315Z,55.00
2023-05-17T17:36:59.381Z,56.90
2023-05-17T17:39:26.272Z,57.10
2023-05-17T17:41:53.114Z,55.90
2023-05-17T17:44:19.874Z,55.70
2023-05-17T17:46:46.656Z,55.70
2023-05-17T17:49:13.551Z,54.90
2023-05-17T17:51:42.840Z,56.20
2023-05-17T17:54:09.578Z,55.60
2023-05-17T17:56:36.623Z,58.30
2023-05-17T17:59:06.429Z,58.20
2023-05-17T18:01:35.085Z,57.60
2023-05-17T18:04:02.047Z,57.00
2023-05-17T18:06:28.884Z,57.10
2023-05-17T18:08:57.440Z,58.20
2023-05-17T18:11:24.413Z,59.00
2023-05-17T18:13:53.611Z,60.00
2023-05-17T18:16:20.490Z,60.30
2023-05-17T18:18:49.371Z,60.30
2023-05-17T18:21:16.194Z,59.40
2023-05-17T18:23:42.940Z,60.30
2023-05-17T18:26:14.579Z,60.70
2023-05-17T18:28:42.792Z,60.80
2023-05-17T18:31:10.346Z,60.90
2023-05-17T18:33:37.176Z,61.20
2023-05-17T18:36:04.062Z,61.20
2023-05-17T18:38:30.857Z,61.50
2023-05-17T18:40:57.658Z,62.20
2023-05-17T18:43:24.406Z,62.70
2023-05-17T18:45:51.356Z,63.20
2023-05-17T18:48:18.410Z,63.80
2023-05-17T18:50:45.236Z,63.80
2023-05-17T18:53:12.989Z,65.00
2023-05-17T18:55:42.754Z,65.10
2023-05-17T18:58:09.567Z,65.70
2023-05-17T19:00:36.476Z,66.00
2023-05-17T19:03:04.309Z,66.80
2023-05-17T19:05:31.314Z,66.80
2023-05-17T19:07:57.976Z,67.20
2023-05-17T19:10:24.824Z,68.00
2023-05-17T19:12:51.576Z,68.50
2023-05-17T19:15:19.250Z,69.00
2023-05-17T19:17:45.938Z,69.40
2023-05-17T19:20:19.249Z,70.30
2023-05-17T19:22:49.167Z,70.50
2023-05-17T19:25:16.858Z,70.60
2023-05-17T19:27:44.480Z,70.50
2023-05-17T19:30:11.351Z,71.20
2023-05-17T19:32:38.232Z,71.10
2023-05-17T19:35:05.715Z,71.50
2023-05-17T19:37:32.480Z,71.70
2023-05-17T19:39:59.499Z,72.20
2023-05-17T19:42:26.653Z,73.20
2023-05-17T19:44:53.414Z,73.40
2023-05-17T19:47:20.125Z,74.00
2023-05-17T19:49:46.862Z,74.20
2023-05-17T19:52:16.269Z,75.10
2023-05-17T19:54:42.977Z,75.90
2023-05-17T19:57:09.796Z,76.20
2023-05-17T19:59:38.665Z,76.70
2023-05-17T20:02:05.602Z,77.30
2023-05-17T20:04:32.401Z,78.00
2023-05-17T20:06:59.177Z,78.30
2023-05-17T20:09:30.104Z,78.90
2023-05-17T20:11:57.103Z,79.50
2023-05-17T20:14:23.993Z,79.90
2023-05-17T20:16:53.170Z,80.40
2023-05-17T20:19:20.013Z,80.90
2023-05-17T20:21:46.869Z,81.40
2023-05-17T20:24:16.576Z,81.90
2023-05-17T20:26:46.255Z,82.30
2023-05-17T20:29:13.027Z,82.80
2023-05-17T20:31:40.203Z,83.90
2023-05-17T20:34:06.937Z,85.10
2023-05-17T20:36:33.660Z,85.50
2023-05-17T20:39:00.750Z,86.50
2023-05-17T20:41:27.536Z,86.60
2023-05-17T20:43:54.643Z,87.30
2023-05-17T20:46:21.486Z,87.80
2023-05-17T20:48:49.878Z,88.50
2023-05-17T20:51:20.126Z,89.10
2023-05-17T20:53:46.953Z,90.10
2023-05-17T20:56:19.171Z,90.40
2023-05-17T20:58:49.402Z,90.70
2023-05-17T21:01:16.147Z,90.90
2023-05-17T21:03:43.464Z,91.20
2023-05-17T21:06:10.711Z,91.30
2023-05-17T21:08:37.570Z,92.10
2023-05-17T21:11:04.471Z,92.30
2023-05-17T21:13:34.200Z,92.40
2023-05-17T21:16:01.043Z,92.80
2023-05-17T21:18:27.904Z,92.80
2023-05-17T21:20:56.981Z,93.00
2023-05-17T21:23:23.551Z,93.70
2023-05-17T21:25:50.190Z,93.90
2023-05-17T21:28:16.878Z,94.20
2023-05-17T21:30:43.533Z,94.90
2023-05-17T21:33:10.417Z,95.00
2023-05-17T21:35:37.035Z,95.10
2023-05-17T21:38:03.688Z,95.60
2023-05-17T21:40:30.447Z,96.40
2023-05-17T21:42:57.236Z,96.20
2023-05-17T21:45:23.897Z,96.40
2023-05-17T21:47:50.628Z,96.90
2023-05-17T21:50:17.507Z,97.40
2023-05-17T21:52:44.198Z,97.70
2023-05-17T21:55:10.926Z,98.30
2023-05-17T21:57:37.795Z,99.00
2023-05-17T22:00:05.127Z,98.80
2023-05-17T22:02:33.200Z,99.70
2023-05-17T22:05:00.062Z,99.90
2023-05-17T22:07:26.652Z,99.90
2023-05-17T22:09:54.219Z,99.90
2023-05-17T22:12:25.334Z,99.90
2023-05-17T22:14:56.709Z,99.90
2023-05-17T22:17:34.976Z,99.90
2023-05-17T22:20:09.481Z,99.90
2023-05-17T22:22:37.328Z,99.90
2023-05-17T22:25:04.041Z,99.90
2023-05-17T22:27:30.851Z,99.90
2023-05-17T22:29:57.440Z,99.90
2023-05-17T22:32:24.009Z,99.90
2023-05-17T22:34:50.911Z,99.90
2023-05-17T22:37:17.692Z,99.90
2023-05-17T22:39:44.345Z,99.90
2023-05-17T22:42:10.992Z,99.90
2023-05-17T22:44:37.584Z,99.90
2023-05-17T22:47:04.420Z,99.90
2023-05-17T22:49:34.153Z,99.90
2023-05-17T22:52:05.747Z,99.90
2023-05-17T22:54:33.307Z,99.90
2023-05-17T22:57:00.779Z,99.90
2023-05-17T22:59:29.462Z,99.90
2023-05-17T23:01:56.281Z,99.90
2023-05-17T23:04:30.036Z,99.90
2023-05-17T23:07:02.339Z,99.90
2023-05-17T23:09:37.920Z,99.90
2023-05-17T23:12:07.455Z,99.90
2023-05-17T23:14:35.984Z,99.90
2023-05-17T23:17:03.982Z,99.90
2023-05-17T23:19:31.254Z,99.90
2023-05-17T23:22:06.179Z,99.90
2023-05-17T23:24:38.345Z,99.90
2023-05-17T23:27:05.775Z,99.90
2023-05-17T23:29:33.667Z,99.90
2023-05-17T23:32:00.430Z,99.90
2023-05-17T23:34:27.549Z,99.90
2023-05-17T23:36:54.163Z,99.90
2023-05-17T23:39:20.709Z,99.90
2023-05-17T23:41:47.659Z,99.90
2023-05-17T23:44:14.270Z,99.90
2023-05-17T23:46:44.581Z,99.90
2023-05-17T23:49:11.244Z,99.90
2023-05-17T23:51:37.905Z,99.90
2023-05-17T23:54:04.554Z,99.90
2023-05-17T23:56:31.156Z,99.90
2023-05-17T23:58:57.718Z,99.90
